createdAt,value
2017-06-16T00:00:51.683Z,99.99
2017-06-16T00:01:51.656Z,99.99
2017-06-16T00:02:51.678Z,99.99
2017-06-16T00:03:51.673Z,99.99
2017-06-16T00:04:52.109Z,99.99
2017-06-16T00:05:51.671Z,99.99
2017-06-16T00:06:51.361Z,99.99
2017-06-16T00:07:51.812Z,99.99
2017-06-16T00:08:51.674Z,99.99
2017-06-16T00:09:51.335Z,99.99
2017-06-16T00:10:52.240Z,99.99
2017-06-16T00:11:51.328Z,99.99
2017-06-16T00:12:51.324Z,99.99
2017-06-16T00:13:51.322Z,99.99
2017-06-16T00:14:51.320Z,99.99
2017-06-16T00:15:51.322Z,99.99
2017-06-16T00:16:51.923Z,99.99
2017-06-16T00:17:51.631Z,99.99
2017-06-16T12:05:05.244Z,58.31
2017-06-16T12:05:50.695Z,60.42
2017-06-16T12:06:50.694Z,60.42
2017-06-16T12:07:50.697Z,60.91
2017-06-16T12:08:50.373Z,59.85
2017-06-16T12:09:50.696Z,58.63
2017-06-16T12:10:50.700Z,58.63
2017-06-16T12:11:50.697Z,58.44
2017-06-16T12:12:50.699Z,58.82
2017-06-16T12:13:50.700Z,58.56
2017-06-16T12:14:50.716Z,57.98
2017-06-16T12:15:50.398Z,57.21
2017-06-16T12:16:50.701Z,58.17
2017-06-16T12:17:50.703Z,58.56
2017-06-16T12:18:50.716Z,55.48
2017-06-16T12:19:50.699Z,56.6
2017-06-16T12:20:50.929Z,56.51
2017-06-16T12:21:50.887Z,57.06
2017-06-16T12:22:50.662Z,58.22
2017-06-16T12:23:50.819Z,58.57
2017-06-16T12:24:51.093Z,58.76
2017-06-16T12:25:50.994Z,59.63
2017-06-16T12:26:51.124Z,59.82
2017-06-16T12:27:50.789Z,59.99
2017-06-16T12:28:50.382Z,60.01
2017-06-16T12:29:50.719Z,60.69
2017-06-16T12:30:50.707Z,60.59
2017-06-16T12:31:50.704Z,59.99
2017-06-16T12:32:50.706Z,59.12
2017-06-16T12:33:50.702Z,58.54
2017-06-16T12:34:50.706Z,60.56
2017-06-16T12:35:50.707Z,60.75
2017-06-16T12:36:50.382Z,61.91
2017-06-16T12:37:50.706Z,62.48
2017-06-16T12:38:50.703Z,60.85
2017-06-16T12:39:50.392Z,61.61
2017-06-16T12:40:50.379Z,61.33
2017-06-16T12:41:50.702Z,60.17
2017-06-16T12:42:50.721Z,59.79
2017-06-16T12:43:50.701Z,59.89
2017-06-16T12:44:50.377Z,60.37
2017-06-16T12:45:50.700Z,60.91
2017-06-16T12:46:50.381Z,62.26
2017-06-16T12:47:50.698Z,61.01
2017-06-16T12:48:50.700Z,61.49
2017-06-16T12:49:50.699Z,62.55
2017-06-16T12:50:50.746Z,63.02
2017-06-16T12:51:50.710Z,61.01
2017-06-16T12:52:50.374Z,60.82
2017-06-16T12:53:50.693Z,60.91
2017-06-16T12:54:50.700Z,60.63
2017-06-16T12:55:50.696Z,60.46
2017-06-16T12:56:50.694Z,59.79
2017-06-16T12:57:50.371Z,61.23
2017-06-16T12:58:50.703Z,60.11
2017-06-16T12:59:50.738Z,58.47
2017-06-16T13:00:50.369Z,58.57
2017-06-16T13:01:50.703Z,59.53
2017-06-16T13:02:50.691Z,59.56
2017-06-16T13:03:50.383Z,58.5
2017-06-16T13:04:50.690Z,58.5
2017-06-16T13:05:50.369Z,56.1
2017-06-16T13:06:50.691Z,56
2017-06-16T13:07:50.364Z,58.5
2017-06-16T13:09:50.692Z,56.96
2017-06-16T13:10:50.689Z,58.02
2017-06-16T13:11:50.368Z,55.65
2017-06-16T13:12:50.367Z,56.51
2017-06-16T13:13:50.690Z,54.9
2017-06-16T13:14:50.449Z,54.13
2017-06-16T13:15:50.690Z,54.42
2017-06-16T13:16:50.691Z,54.32
2017-06-16T13:17:50.689Z,53.62
2017-06-16T13:18:50.692Z,53.91
2017-06-16T13:19:50.369Z,54.97
2017-06-16T13:20:50.690Z,55.65
2017-06-16T13:21:50.711Z,55.33
2017-06-16T13:22:50.393Z,55.33
2017-06-16T13:23:50.367Z,55.9
2017-06-16T13:24:50.692Z,56
2017-06-16T13:25:50.690Z,55.52
2017-06-16T13:26:50.695Z,55.71
2017-06-16T13:27:50.370Z,56.74
2017-06-16T13:28:50.372Z,56.87
2017-06-16T13:29:50.697Z,55.98
2017-06-16T13:30:50.690Z,54.85
2017-06-16T13:31:50.369Z,54.91
2017-06-16T13:32:50.691Z,55.4
2017-06-16T13:33:50.367Z,55.04
2017-06-16T13:34:50.691Z,54.94
2017-06-16T13:35:50.691Z,54.65
2017-06-16T13:36:50.692Z,55.33
2017-06-16T13:37:50.696Z,55.62
2017-06-16T13:38:50.711Z,55.81
2017-06-16T13:39:50.733Z,55.55
2017-06-16T13:40:50.384Z,55.26
2017-06-16T13:41:50.369Z,54.87
2017-06-16T13:42:50.702Z,54.3
2017-06-16T13:43:50.369Z,54.1
2017-06-16T13:44:50.691Z,55.35
2017-06-16T13:45:50.372Z,55.65
2017-06-16T13:46:50.692Z,54.87
2017-06-16T13:47:50.714Z,54.78
2017-06-16T13:48:50.693Z,55.74
2017-06-16T13:49:50.696Z,56.8
2017-06-16T13:50:50.695Z,56.7
2017-06-16T13:51:50.695Z,55.04
2017-06-16T13:52:50.696Z,55.52
2017-06-16T13:53:50.375Z,56.65
2017-06-16T13:54:50.373Z,58.76
2017-06-16T13:55:50.375Z,57.29
2017-06-16T13:56:50.373Z,58.15
2017-06-16T13:57:50.714Z,57.77
2017-06-16T13:58:50.706Z,58.32
2017-06-16T13:59:50.691Z,59.47
2017-06-16T14:00:50.696Z,60.6
2017-06-16T14:01:50.699Z,61.08
2017-06-16T14:02:50.371Z,60.98
2017-06-16T14:03:50.694Z,62.04
2017-06-16T14:04:50.697Z,62.68
2017-06-16T14:05:50.705Z,64.15
2017-06-16T14:06:50.690Z,63.73
2017-06-16T14:07:50.689Z,64.4
2017-06-16T14:08:50.367Z,64.98
2017-06-16T14:09:50.707Z,64.22
2017-06-16T14:10:50.685Z,63.83
2017-06-16T14:11:50.686Z,63.16
2017-06-16T14:12:50.704Z,63.54
2017-06-16T14:13:50.685Z,62.96
2017-06-16T14:14:50.686Z,62.87
2017-06-16T14:15:50.359Z,62.77
2017-06-16T14:16:50.357Z,62.29
2017-06-16T14:17:50.675Z,60.98
2017-06-16T14:18:50.375Z,61.62
2017-06-16T14:19:50.687Z,60.28
2017-06-16T14:20:50.678Z,60.47
2017-06-16T14:21:50.350Z,60.95
2017-06-16T14:22:50.671Z,60.75
2017-06-16T14:23:50.669Z,59.7
2017-06-16T14:24:50.348Z,59.8
2017-06-16T14:25:50.359Z,59.99
2017-06-16T14:26:50.341Z,59.8
2017-06-16T14:27:50.676Z,60.28
2017-06-16T14:28:50.673Z,60.75
2017-06-16T14:29:50.340Z,60.75
2017-06-16T14:30:50.703Z,60.95
2017-06-16T14:31:50.337Z,60.57
2017-06-16T14:32:50.340Z,62.04
2017-06-16T14:33:50.654Z,63.76
2017-06-16T14:34:50.652Z,62.16
2017-06-16T14:35:50.653Z,61.97
2017-06-16T14:36:50.650Z,61.11
2017-06-16T14:37:50.669Z,58.25
2017-06-16T14:38:50.648Z,59.22
2017-06-16T14:39:50.341Z,60.72
2017-06-16T14:40:50.325Z,59.5
2017-06-16T14:41:50.652Z,58.73
2017-06-16T14:42:50.323Z,60.27
2017-06-16T14:43:50.662Z,58.35
2017-06-16T14:44:50.647Z,57.29
2017-06-16T14:45:50.320Z,58.35
2017-06-16T14:46:50.319Z,58.64
2017-06-16T14:47:50.639Z,59.99
2017-06-16T14:48:50.638Z,58.15
2017-06-16T14:49:50.638Z,58.15
2017-06-16T14:50:50.668Z,59.79
2017-06-16T14:51:50.320Z,58.54
2017-06-16T14:52:50.648Z,57.87
2017-06-16T14:53:50.638Z,58.06
2017-06-16T14:54:50.636Z,59.99
2017-06-16T14:55:50.310Z,58.15
2017-06-16T14:56:50.634Z,57.97
2017-06-16T14:57:50.653Z,55.85
2017-06-16T14:58:50.308Z,54.99
2017-06-16T14:59:50.631Z,55.94
2017-06-16T15:00:50.631Z,55.53
2017-06-16T15:01:50.309Z,55.05
2017-06-16T15:02:50.641Z,56.68
2017-06-16T15:03:50.666Z,57.84
2017-06-16T15:04:50.629Z,59.57
2017-06-16T15:05:50.627Z,57.45
2017-06-16T15:06:50.626Z,56.78
2017-06-16T15:07:50.625Z,56.98
2017-06-16T15:08:50.681Z,57.07
2017-06-16T15:09:50.324Z,58.03
2017-06-16T15:10:50.631Z,58.58
2017-06-16T15:11:50.622Z,58.96
2017-06-16T15:12:50.622Z,58.96
2017-06-16T15:13:50.670Z,59.64
2017-06-16T15:14:50.616Z,59.73
2017-06-16T15:15:50.616Z,59.83
2017-06-16T15:16:50.616Z,60.38
2017-06-16T15:17:50.291Z,60.6
2017-06-16T15:18:50.291Z,60.18
2017-06-16T15:19:50.611Z,61.14
2017-06-16T15:20:50.623Z,61.72
2017-06-16T15:21:50.612Z,62.74
2017-06-16T15:22:50.610Z,63.7
2017-06-16T15:23:50.626Z,64.56
2017-06-16T15:24:50.304Z,64.76
2017-06-16T15:25:50.284Z,66.1
2017-06-16T15:26:50.604Z,66.19
2017-06-16T15:27:50.277Z,67.79
2017-06-16T15:28:50.599Z,68.37
2017-06-16T15:29:50.596Z,68.27
2017-06-16T15:30:50.607Z,70.09
2017-06-16T15:31:50.592Z,71.44
2017-06-16T15:32:50.267Z,71.25
2017-06-16T15:33:50.605Z,71.92
2017-06-16T15:34:50.583Z,69.9
2017-06-16T15:35:50.605Z,70.67
2017-06-16T15:36:50.581Z,69.42
2017-06-16T15:37:50.589Z,69.23
2017-06-16T15:38:50.252Z,69.13
2017-06-16T15:39:50.576Z,67.22
2017-06-16T15:40:50.572Z,66.96
2017-06-16T15:41:50.265Z,66.96
2017-06-16T15:42:50.567Z,67.16
2017-06-16T15:43:50.242Z,65.23
2017-06-16T15:44:50.565Z,66.35
2017-06-16T15:45:50.571Z,66.29
2017-06-16T15:46:50.557Z,66.49
2017-06-16T15:47:50.571Z,67.06
2017-06-16T15:48:50.577Z,66
2017-06-16T15:49:50.253Z,66.58
2017-06-16T15:50:50.254Z,64.85
2017-06-16T15:51:50.546Z,65.62
2017-06-16T15:52:50.223Z,64.85
2017-06-16T15:53:50.542Z,64.72
2017-06-16T15:54:50.218Z,65.3
2017-06-16T15:55:50.228Z,65.97
2017-06-16T15:56:50.214Z,65.78
2017-06-16T15:57:50.534Z,64.72
2017-06-16T15:58:50.208Z,64.53
2017-06-16T15:59:50.207Z,63.76
2017-06-16T16:00:50.529Z,64.72
2017-06-16T16:01:50.214Z,64.82
2017-06-16T16:02:50.521Z,65.94
2017-06-16T16:03:50.534Z,67.09
2017-06-16T16:04:50.194Z,67.66
2017-06-16T16:05:50.194Z,69.1
2017-06-16T16:06:50.193Z,71.98
2017-06-16T16:07:50.185Z,73.13
2017-06-16T16:08:50.504Z,73.47
2017-06-16T16:09:50.502Z,74.24
2017-06-16T16:10:50.517Z,73.76
2017-06-16T16:11:50.173Z,73.57
2017-06-16T16:12:50.171Z,75.77
2017-06-16T16:13:50.490Z,75.96
2017-06-16T16:14:50.488Z,74.91
2017-06-16T16:15:50.166Z,74.87
2017-06-16T16:16:50.160Z,74.77
2017-06-16T16:17:50.156Z,75.16
2017-06-16T16:18:50.479Z,74.49
2017-06-16T16:19:50.155Z,76.69
2017-06-16T16:20:50.472Z,75.87
2017-06-16T16:21:50.467Z,75.96
2017-06-16T16:22:50.483Z,75.68
2017-06-16T16:23:50.138Z,74.72
2017-06-16T16:24:50.480Z,73.09
2017-06-16T16:25:50.456Z,75.2
2017-06-16T16:26:50.130Z,75.96
2017-06-16T16:27:50.448Z,76.64
2017-06-16T16:28:50.139Z,76.15
2017-06-16T16:29:50.122Z,75.96
2017-06-16T16:30:50.439Z,75.87
2017-06-16T16:31:50.439Z,76.25
2017-06-16T16:32:50.451Z,74.15
2017-06-16T16:33:50.433Z,74.24
2017-06-16T16:34:50.430Z,73.54
2017-06-16T16:35:50.099Z,72.38
2017-06-16T16:36:50.421Z,70.56
2017-06-16T16:37:50.096Z,69.51
2017-06-16T16:38:50.422Z,69.42
2017-06-16T16:39:50.412Z,68.17
2017-06-16T16:40:50.086Z,65.78
2017-06-16T16:41:50.084Z,66.16
2017-06-16T16:42:50.400Z,66.93
2017-06-16T16:43:50.397Z,67.5
2017-06-16T16:44:50.395Z,68.55
2017-06-16T16:45:50.449Z,68.07
2017-06-16T16:46:50.065Z,67.69
2017-06-16T16:47:50.390Z,66.93
2017-06-16T16:48:50.282Z,65.97
2017-06-16T16:49:50.379Z,64.34
2017-06-16T16:50:50.050Z,62.62
2017-06-16T16:51:50.372Z,63
2017-06-16T16:52:50.055Z,64.05
2017-06-16T16:53:50.363Z,64.34
2017-06-16T16:54:50.038Z,62.62
2017-06-16T16:55:50.361Z,63.1
2017-06-16T16:56:50.356Z,62.33
2017-06-16T16:57:50.348Z,63.57
2017-06-16T16:58:50.345Z,62.81
2017-06-16T16:59:50.343Z,63.76
2017-06-16T17:00:50.339Z,64.15
2017-06-16T17:01:50.340Z,63.96
2017-06-16T17:02:50.397Z,64.09
2017-06-16T17:03:50.331Z,63.8
2017-06-16T17:04:50.333Z,63.03
2017-06-16T17:05:50.322Z,61.88
2017-06-16T17:06:50.319Z,62.36
2017-06-16T17:07:49.994Z,63.03
2017-06-16T17:08:50.316Z,63.42
2017-06-16T17:09:50.309Z,64.37
2017-06-16T17:10:49.992Z,63.51
2017-06-16T17:11:50.302Z,61.98
2017-06-16T17:12:50.296Z,62.74
2017-06-16T17:13:50.297Z,62.26
2017-06-16T17:14:49.972Z,62.17
2017-06-16T17:15:50.287Z,62.93
2017-06-16T17:16:49.963Z,63.32
2017-06-16T17:17:49.962Z,62.36
2017-06-16T17:18:50.278Z,62.26
2017-06-16T17:19:50.277Z,61.98
2017-06-16T17:20:50.293Z,61.4
2017-06-16T17:21:49.946Z,62.46
2017-06-16T17:22:50.270Z,62.74
2017-06-16T17:23:49.942Z,63.13
2017-06-16T17:24:49.941Z,63.03
2017-06-16T17:25:49.934Z,63.6
2017-06-16T17:26:50.262Z,63.32
2017-06-16T17:27:50.273Z,63.51
2017-06-16T17:28:49.925Z,63.51
2017-06-16T17:29:50.267Z,64.09
2017-06-16T17:30:50.258Z,65.71
2017-06-16T17:31:50.248Z,65.62
2017-06-16T17:32:50.254Z,64.56
2017-06-16T17:33:50.231Z,65.52
2017-06-16T17:34:50.229Z,64.18
2017-06-16T17:35:49.907Z,64.09
2017-06-16T17:36:50.220Z,63.7
2017-06-16T17:37:49.897Z,63.89
2017-06-16T17:38:49.893Z,63.51
2017-06-16T17:39:50.215Z,64.05
2017-06-16T17:40:49.902Z,64.25
2017-06-16T17:41:50.204Z,64.47
2017-06-16T17:42:50.203Z,65.39
2017-06-16T17:43:49.875Z,66.25
2017-06-16T17:44:49.874Z,67.82
2017-06-16T17:45:50.194Z,66.45
2017-06-16T17:46:50.190Z,66.83
2017-06-16T17:47:49.876Z,67.69
2017-06-16T17:48:49.861Z,65.78
2017-06-16T17:49:50.180Z,66.16
2017-06-16T17:50:50.177Z,66.25
2017-06-16T17:51:50.185Z,66.25
2017-06-16T17:52:49.846Z,66.06
2017-06-16T17:53:50.164Z,66.93
2017-06-16T17:54:50.166Z,67.02
2017-06-16T17:55:49.837Z,67.02
2017-06-16T17:56:50.166Z,67.41
2017-06-16T17:57:50.160Z,67.69
2017-06-16T17:58:50.150Z,67.6
2017-06-16T17:59:50.151Z,68.65
2017-06-16T18:00:49.828Z,69.42
2017-06-16T18:01:50.138Z,68.46
2017-06-16T18:02:50.134Z,68.74
2017-06-16T18:03:50.129Z,69.13
2017-06-16T18:04:50.132Z,69.03
2017-06-16T18:05:50.124Z,69.8
2017-06-16T18:06:50.122Z,69.7
2017-06-16T18:07:50.130Z,69.86
2017-06-16T18:08:49.789Z,69.76
2017-06-16T18:09:50.110Z,69.86
2017-06-16T18:10:49.784Z,70.62
2017-06-16T18:11:50.104Z,70.43
2017-06-16T18:12:50.099Z,71.11
2017-06-16T18:13:49.772Z,70.53
2017-06-16T18:14:50.091Z,71.3
2017-06-16T18:15:50.087Z,71.48
2017-06-16T18:16:50.084Z,71.48
2017-06-16T18:17:49.758Z,71.2
2017-06-16T18:18:50.077Z,70.34
2017-06-16T18:19:50.115Z,70.53
2017-06-16T18:20:50.067Z,70.34
2017-06-16T18:21:49.744Z,71.3
2017-06-16T18:22:50.064Z,71.97
2017-06-16T18:23:50.060Z,71.58
2017-06-16T18:24:50.067Z,71.97
2017-06-16T18:25:49.727Z,71.77
2017-06-16T18:26:49.723Z,71.11
2017-06-16T18:27:50.039Z,71.2
2017-06-16T18:28:49.729Z,71.58
2017-06-16T18:29:50.036Z,71.87
2017-06-16T18:30:50.036Z,72.16
2017-06-16T18:31:50.025Z,72.34
2017-06-16T18:32:50.034Z,72.16
2017-06-16T18:33:50.048Z,72.44
2017-06-16T18:34:50.029Z,73.02
2017-06-16T18:35:50.009Z,73.02
2017-06-16T18:36:49.686Z,72.12
2017-06-16T18:37:49.684Z,71.55
2017-06-16T18:38:50.004Z,72.31
2017-06-16T18:39:49.674Z,72.34
2017-06-16T18:40:49.668Z,72.31
2017-06-16T18:41:49.662Z,72.5
2017-06-16T18:42:49.987Z,73.08
2017-06-16T18:43:49.981Z,72.5
2017-06-16T18:44:49.974Z,73.08
2017-06-16T18:45:49.650Z,73.36
2017-06-16T18:46:49.655Z,73.08
2017-06-16T18:47:49.639Z,73.55
2017-06-16T18:48:49.965Z,73.84
2017-06-16T18:49:49.635Z,73.94
2017-06-16T18:50:49.951Z,73.36
2017-06-16T18:51:49.947Z,72.79
2017-06-16T18:52:49.621Z,72.22
2017-06-16T18:53:49.937Z,72.22
2017-06-16T18:54:49.951Z,71.73
2017-06-16T18:55:49.605Z,71.36
2017-06-16T18:56:49.600Z,72.41
2017-06-16T18:57:49.598Z,72.12
2017-06-16T18:58:49.599Z,72.31
2017-06-16T18:59:49.589Z,71.36
2017-06-16T19:00:49.585Z,71.26
2017-06-16T19:01:49.918Z,70.3
2017-06-16T19:02:49.589Z,70.68
2017-06-16T19:03:49.583Z,70.59
2017-06-16T19:04:49.595Z,70.59
2017-06-16T19:05:49.566Z,70.5
2017-06-16T19:06:49.559Z,70.5
2017-06-16T19:07:49.550Z,70.11
2017-06-16T19:08:49.869Z,69.73
2017-06-16T19:09:49.546Z,69.35
2017-06-16T19:10:49.540Z,69.25
2017-06-16T19:11:49.858Z,69.06
2017-06-16T19:12:49.872Z,69.06
2017-06-16T19:13:49.544Z,69.25
2017-06-16T19:14:49.842Z,68.39
2017-06-16T19:15:49.841Z,68.68
2017-06-16T19:16:49.832Z,67.97
2017-06-16T19:17:49.510Z,68.26
2017-06-16T19:18:49.524Z,68.26
2017-06-16T19:19:49.818Z,68.26
2017-06-16T19:20:49.494Z,69.31
2017-06-16T19:21:49.823Z,69.02
2017-06-16T19:22:49.820Z,69.31
2017-06-16T19:23:49.800Z,68.93
2017-06-16T19:24:49.797Z,69.41
2017-06-16T19:25:49.492Z,68.93
2017-06-16T19:26:49.464Z,69.02
2017-06-16T19:27:49.788Z,69.79
2017-06-16T19:28:49.455Z,70.07
2017-06-16T19:29:49.772Z,69.89
2017-06-16T19:30:49.765Z,69.79
2017-06-16T19:31:49.439Z,69.89
2017-06-16T19:32:49.759Z,69.79
2017-06-16T19:33:49.752Z,69.89
2017-06-16T19:34:49.766Z,69.21
2017-06-16T19:35:49.743Z,69.79
2017-06-16T19:36:49.416Z,69.98
2017-06-16T19:37:49.411Z,70.04
2017-06-16T19:38:49.408Z,70.17
2017-06-16T19:39:49.399Z,70.65
2017-06-16T19:40:49.717Z,70.46
2017-06-16T19:41:49.409Z,70.81
2017-06-16T19:42:49.710Z,70.75
2017-06-16T19:43:49.702Z,71.13
2017-06-16T19:44:49.374Z,70.42
2017-06-16T19:45:49.696Z,69.85
2017-06-16T19:46:49.693Z,70.61
2017-06-16T19:47:49.723Z,70.65
2017-06-16T19:48:49.679Z,70.65
2017-06-16T19:49:49.354Z,70.56
2017-06-16T19:50:49.670Z,70.61
2017-06-16T19:51:49.365Z,70.52
2017-06-16T19:52:49.399Z,70.52
2017-06-16T19:53:49.652Z,70.46
2017-06-16T19:54:49.657Z,70.14
2017-06-16T19:55:49.642Z,70.04
2017-06-16T19:56:49.660Z,70.52
2017-06-16T19:57:49.631Z,71.19
2017-06-16T19:58:49.306Z,69.95
2017-06-16T19:59:49.312Z,69.66
2017-06-16T20:00:49.619Z,70.04
2017-06-16T20:01:49.630Z,69.95
2017-06-16T20:02:49.607Z,70.23
2017-06-16T20:03:49.604Z,70.52
2017-06-16T20:04:49.597Z,70.71
2017-06-16T20:05:49.595Z,70.61
2017-06-16T20:06:49.584Z,70.33
2017-06-16T20:07:49.579Z,70.52
2017-06-16T20:08:49.585Z,70.61
2017-06-16T20:09:49.570Z,70.33
2017-06-16T20:10:49.569Z,69.47
2017-06-16T20:11:49.242Z,70.33
2017-06-16T20:12:49.235Z,70.33
2017-06-16T20:13:49.551Z,70.61
2017-06-16T20:14:49.562Z,70.81
2017-06-16T20:15:49.219Z,70.61
2017-06-16T20:16:49.219Z,70.23
2017-06-16T20:17:49.205Z,69.66
2017-06-16T20:18:49.526Z,70.14
2017-06-16T20:19:49.521Z,70.61
2017-06-16T20:20:49.190Z,70.81
2017-06-16T20:21:49.524Z,70.52
2017-06-16T20:22:49.206Z,70.42
2017-06-16T20:23:49.523Z,70.61
2017-06-16T20:24:49.169Z,71.28
2017-06-16T20:25:49.488Z,71.28
2017-06-16T20:26:49.484Z,72.24
2017-06-16T20:27:49.158Z,72.05
2017-06-16T20:28:49.488Z,72.33
2017-06-16T20:29:49.144Z,72.81
2017-06-16T20:30:49.516Z,72.53
2017-06-16T20:31:49.456Z,73
2017-06-16T20:32:49.126Z,72.81
2017-06-16T20:33:49.122Z,72.81
2017-06-16T20:34:49.439Z,72.53
2017-06-16T20:35:49.450Z,72.87
2017-06-16T20:36:49.427Z,72.01
2017-06-16T20:37:49.432Z,72.58
2017-06-16T20:38:49.095Z,72.87
2017-06-16T20:39:49.412Z,73
2017-06-16T20:40:49.093Z,73.35
2017-06-16T20:41:49.080Z,73.73
2017-06-16T20:42:49.402Z,73.63
2017-06-16T20:43:49.068Z,73.44
2017-06-16T20:44:49.414Z,73.63
2017-06-16T20:45:49.380Z,74.02
2017-06-16T20:46:49.050Z,73.73
2017-06-16T20:47:49.388Z,73.63
2017-06-16T20:48:49.361Z,74.21
2017-06-16T20:49:49.357Z,74.21
2017-06-16T20:50:49.353Z,73.54
2017-06-16T20:51:49.344Z,73.35
2017-06-16T20:52:49.393Z,74.11
2017-06-16T20:53:49.335Z,74.02
2017-06-16T20:54:49.328Z,73.92
2017-06-16T20:55:49.322Z,73.83
2017-06-16T20:56:49.317Z,73.44
2017-06-16T20:57:48.991Z,73.73
2017-06-16T20:58:49.317Z,73.63
2017-06-16T20:59:48.981Z,73.92
2017-06-16T21:00:48.998Z,73.83
2017-06-16T21:01:48.968Z,74.02
2017-06-16T21:02:49.286Z,73.92
2017-06-16T21:03:49.280Z,74.4
2017-06-16T21:04:48.950Z,73.73
2017-06-16T21:05:49.281Z,73.83
2017-06-16T21:06:48.959Z,73.35
2017-06-16T21:07:49.256Z,73.35
2017-06-16T21:08:49.249Z,73.25
2017-06-16T21:09:49.248Z,73.83
2017-06-16T21:10:49.238Z,74.02
2017-06-16T21:11:49.257Z,74.59
2017-06-16T21:12:48.906Z,74.02
2017-06-16T21:13:49.221Z,73.54
2017-06-16T21:14:48.894Z,74.02
2017-06-16T21:15:49.211Z,74.3
2017-06-16T21:16:48.882Z,74.02
2017-06-16T21:17:49.199Z,73.63
2017-06-16T21:18:49.195Z,74.02
2017-06-16T21:19:49.196Z,73.83
2017-06-16T21:20:48.880Z,73.92
2017-06-16T21:21:49.177Z,74.21
2017-06-16T21:22:49.174Z,74.02
2017-06-16T21:23:49.169Z,73.83
2017-06-16T21:24:48.839Z,73.92
2017-06-16T21:25:48.850Z,74.21
2017-06-16T21:26:48.826Z,72.87
2017-06-16T21:27:49.142Z,73.25
2017-06-16T21:28:49.179Z,73.44
2017-06-16T21:29:49.131Z,73.35
2017-06-16T21:30:49.150Z,73.54
2017-06-16T21:31:49.143Z,73.83
2017-06-16T21:32:49.115Z,73.07
2017-06-16T21:33:49.106Z,73.54
2017-06-16T21:34:49.101Z,72.87
2017-06-16T21:35:48.775Z,73.44
2017-06-16T21:36:48.769Z,73.73
2017-06-16T21:37:49.106Z,73.69
2017-06-16T21:38:49.099Z,73.44
2017-06-16T21:39:49.073Z,73.16
2017-06-16T21:40:48.748Z,73.44
2017-06-16T21:41:49.067Z,73.73
2017-06-16T21:42:49.055Z,73.5
2017-06-16T21:43:49.052Z,73.54
2017-06-16T21:44:49.046Z,74.17
2017-06-16T21:45:49.803Z,74.3
2017-06-16T21:46:48.729Z,74.02
2017-06-16T21:47:49.091Z,74.3
2017-06-16T21:48:49.029Z,73.69
2017-06-16T21:49:49.017Z,74.21
2017-06-16T21:50:49.328Z,75.03
2017-06-16T21:51:49.004Z,75.42
2017-06-16T21:52:48.998Z,74.74
2017-06-16T21:53:48.818Z,73.92
2017-06-16T21:54:48.983Z,73.92
2017-06-16T21:55:49.045Z,73.63
2017-06-16T21:56:48.973Z,73.35
2017-06-16T21:57:48.967Z,72.87
2017-06-16T21:58:49.164Z,73.41
2017-06-16T21:59:48.632Z,73.44
2017-06-16T22:00:49.016Z,73.63
2017-06-16T22:01:48.947Z,73.35
2017-06-16T22:02:48.939Z,73.35
2017-06-16T22:03:49.046Z,73.63
2017-06-16T22:04:48.927Z,73.98
2017-06-16T22:05:48.653Z,74.02
2017-06-16T22:06:48.624Z,74.78
2017-06-16T22:07:48.908Z,74.98
2017-06-16T22:08:49.037Z,75.16
2017-06-16T22:09:48.898Z,75.22
2017-06-16T22:10:48.892Z,75.16
2017-06-16T22:11:48.863Z,75.13
2017-06-16T22:12:48.581Z,74.59
2017-06-16T22:13:48.552Z,74.65
2017-06-16T22:14:48.830Z,75.26
2017-06-16T22:15:48.665Z,75.45
2017-06-16T22:16:49.251Z,74.84
2017-06-16T22:17:48.529Z,74.02
2017-06-16T22:18:48.521Z,74.17
2017-06-16T22:19:48.895Z,74.59
2017-06-16T22:20:48.836Z,74.59
2017-06-16T22:21:48.832Z,73.83
2017-06-16T22:22:49.400Z,73.69
2017-06-16T22:23:48.815Z,73.98
2017-06-16T22:24:48.487Z,74.08
2017-06-16T22:25:48.914Z,73.79
2017-06-16T22:26:48.497Z,74.55
2017-06-16T22:27:48.473Z,74.49
2017-06-16T22:28:48.784Z,75.03
2017-06-16T22:29:48.801Z,74.65
2017-06-16T22:30:48.466Z,74.65
2017-06-16T22:31:48.445Z,74.74
2017-06-16T22:32:48.741Z,74.59
2017-06-16T22:33:48.754Z,74.93
2017-06-16T22:34:49.187Z,75.45
2017-06-16T22:35:48.744Z,75.22
2017-06-16T22:36:48.741Z,75.51
2017-06-16T22:37:48.867Z,75.51
2017-06-16T22:38:48.405Z,75.03
2017-06-16T22:39:48.740Z,75.22
2017-06-16T22:40:48.755Z,75.26
2017-06-16T22:41:48.712Z,75.22
2017-06-16T22:42:48.704Z,75.42
2017-06-16T22:43:48.509Z,75.42
2017-06-16T22:44:48.691Z,75.22
2017-06-16T22:45:48.686Z,75.22
2017-06-16T22:46:48.575Z,75.22
2017-06-16T22:47:48.354Z,75.7
2017-06-16T22:48:48.346Z,75.89
2017-06-16T22:49:48.663Z,76.08
2017-06-16T22:50:48.654Z,76.46
2017-06-16T22:51:48.653Z,75.7
2017-06-16T22:52:48.642Z,76.46
2017-06-16T22:53:48.317Z,75.7
2017-06-16T22:54:48.635Z,75.7
2017-06-16T22:55:48.320Z,75.98
2017-06-16T22:56:48.299Z,76.56
2017-06-16T22:57:48.291Z,76.46
2017-06-16T22:58:48.284Z,77.23
2017-06-16T22:59:48.600Z,77.13
2017-06-16T23:00:49.134Z,76.94
2017-06-16T23:01:48.586Z,76.75
2017-06-16T23:02:48.581Z,77.13
2017-06-16T23:03:49.202Z,77.51
2017-06-16T23:04:48.569Z,77.7
2017-06-16T23:05:48.578Z,78.09
2017-06-16T23:06:48.558Z,78.18
2017-06-16T23:07:48.553Z,77.99
2017-06-16T23:08:48.818Z,77.51
2017-06-16T23:09:48.540Z,78.37
2017-06-16T23:10:48.559Z,78.37
2017-06-16T23:11:49.005Z,78.18
2017-06-16T23:12:48.522Z,78.75
2017-06-16T23:13:48.540Z,78.56
2017-06-16T23:14:49.024Z,78.28
2017-06-16T23:15:48.507Z,78.66
2017-06-16T23:16:48.176Z,78.18
2017-06-16T23:17:48.261Z,77.51
2017-06-16T23:18:48.165Z,77.8
2017-06-16T23:19:48.481Z,77.99
2017-06-16T23:20:48.604Z,77.8
2017-06-16T23:21:48.150Z,78.66
2017-06-16T23:22:48.148Z,79.04
2017-06-16T23:23:48.876Z,79.61
2017-06-16T23:24:48.130Z,79.23
2017-06-16T23:25:48.444Z,79.14
2017-06-16T23:26:48.524Z,78.94
2017-06-16T23:27:48.120Z,79.14
2017-06-16T23:28:48.104Z,78.47
2017-06-16T23:29:48.103Z,78.85
2017-06-16T23:30:48.093Z,78.66
2017-06-16T23:31:48.116Z,78.75
2017-06-16T23:32:48.427Z,78.47
2017-06-16T23:33:48.396Z,78.94
2017-06-16T23:34:48.071Z,79
2017-06-16T23:35:48.401Z,78.75
2017-06-16T23:36:48.384Z,79.14
2017-06-16T23:37:48.053Z,79.28
2017-06-16T23:38:48.364Z,79.61
2017-06-16T23:39:48.383Z,79.57
2017-06-16T23:40:48.056Z,79.71
2017-06-16T23:41:48.347Z,79.61
2017-06-16T23:42:48.343Z,79.77
2017-06-16T23:43:48.012Z,79.77
2017-06-16T23:44:48.013Z,79.57
2017-06-16T23:45:48.322Z,79.57
2017-06-16T23:46:48.332Z,80.33
2017-06-16T23:47:48.314Z,79.57
2017-06-16T23:48:48.317Z,79.19
2017-06-16T23:49:48.296Z,78.52
2017-06-16T23:50:48.294Z,78.62
2017-06-16T23:51:48.283Z,78.52
2017-06-16T23:52:48.288Z,79
2017-06-16T23:53:48.273Z,79.86
2017-06-16T23:54:47.951Z,79.77
2017-06-16T23:55:48.267Z,79.1
2017-06-16T23:56:48.260Z,79
2017-06-16T23:57:47.926Z,79.1
2017-06-16T23:58:48.247Z,78.52
2017-06-16T23:59:48.241Z,79.1
